sensor_id;sensor_type;location;lat;lon;timestamp;pressure;altitude;pressure_sealevel;temperature;humidity
45763;BME280;37512;52.408;13.356;2023-01-31T00:00:54;100854.41;;;2.76;100.00
45763;BME280;37512;52.408;13.356;2023-01-31T00:04:56;100865.66;;;2.75;100.00
45763;BME280;37512;52.408;13.356;2023-01-31T00:08:59;100860.81;;;2.71;100.00
45763;BME280;37512;52.408;13.356;2023-01-31T00:13:01;100870.66;;;2.72;100.00
45763;BME280;37512;52.408;13.356;2023-01-31T00:17:02;100869.03;;;2.71;100.00
45763;BME280;37512;52.408;13.356;2023-01-31T00:21:09;100876.63;;;2.75;100.00
45763;BME280;37512;52.408;13.356;2023-01-31T00:25:11;100903.03;;;2.70;100.00
45763;BME280;37512;52.408;13.356;2023-01-31T00:29:12;100901.72;;;2.68;100.00
45763;BME280;37512;52.408;13.356;2023-01-31T00:33:14;100890.25;;;2.66;100.00
45763;BME280;37512;52.408;13.356;2023-01-31T00:37:15;100923.53;;;2.59;100.00
45763;BME280;37512;52.408;13.356;2023-01-31T00:41:18;100931.66;;;2.64;100.00
45763;BME280;37512;52.408;13.356;2023-01-31T00:45:19;100928.31;;;2.67;100.00
45763;BME280;37512;52.408;13.356;2023-01-31T00:49:21;100910.03;;;2.77;100.00
45763;BME280;37512;52.408;13.356;2023-01-31T00:53:23;100918.38;;;2.71;100.00
45763;BME280;37512;52.408;13.356;2023-01-31T00:57:25;100926.78;;;2.75;100.00
45763;BME280;37512;52.408;13.356;2023-01-31T01:01:28;100934.19;;;2.75;100.00
45763;BME280;37512;52.408;13.356;2023-01-31T01:05:30;100939.78;;;2.69;100.00
45763;BME280;37512;52.408;13.356;2023-01-31T01:09:31;100937.63;;;2.80;100.00
45763;BME280;37512;52.408;13.356;2023-01-31T01:13:33;100942.50;;;2.83;100.00
45763;BME280;37512;52.408;13.356;2023-01-31T01:17:35;100962.63;;;2.79;100.00
45763;BME280;37512;52.408;13.356;2023-01-31T01:21:36;100977.41;;;2.91;100.00
45763;BME280;37512;52.408;13.356;2023-01-31T01:25:43;100974.06;;;2.95;100.00
45763;BME280;37512;52.408;13.356;2023-01-31T01:29:44;100975.50;;;2.92;100.00
45763;BME280;37512;52.408;13.356;2023-01-31T01:33:47;100966.84;;;2.99;100.00
45763;BME280;37512;52.408;13.356;2023-01-31T01:37:49;100982.88;;;2.91;100.00
45763;BME280;37512;52.408;13.356;2023-01-31T01:41:51;100978.84;;;2.89;100.00
45763;BME280;37512;52.408;13.356;2023-01-31T01:45:52;100986.16;;;2.80;100.00
45763;BME280;37512;52.408;13.356;2023-01-31T01:49:59;101004.94;;;2.86;100.00
45763;BME280;37512;52.408;13.356;2023-01-31T01:54:06;100998.53;;;2.91;100.00
45763;BME280;37512;52.408;13.356;2023-01-31T02:02:26;101020.47;;;2.91;100.00
45763;BME280;37512;52.408;13.356;2023-01-31T02:06:28;101024.75;;;2.97;100.00
45763;BME280;37512;52.408;13.356;2023-01-31T02:10:43;101029.09;;;2.98;100.00
45763;BME280;37512;52.408;13.356;2023-01-31T02:14:47;101031.44;;;2.91;100.00
45763;BME280;37512;52.408;13.356;2023-01-31T02:18:50;101038.63;;;3.01;100.00
45763;BME280;37512;52.408;13.356;2023-01-31T02:35:57;101056.13;;;2.91;100.00
45763;BME280;37512;52.408;13.356;2023-01-31T02:40:37;101071.03;;;2.85;100.00
45763;BME280;37512;52.408;13.356;2023-01-31T02:49:08;101072.06;;;2.75;100.00
45763;BME280;37512;52.408;13.356;2023-01-31T02:53:19;101063.59;;;2.58;100.00
45763;BME280;37512;52.408;13.356;2023-01-31T02:57:21;101060.16;;;2.52;100.00
45763;BME280;37512;52.408;13.356;2023-01-31T03:01:26;101081.00;;;2.34;100.00
45763;BME280;37512;52.408;13.356;2023-01-31T03:05:29;101052.72;;;2.39;100.00
45763;BME280;37512;52.408;13.356;2023-01-31T03:14:02;101048.63;;;2.22;100.00
45763;BME280;37512;52.408;13.356;2023-01-31T03:18:07;101063.59;;;2.11;100.00
45763;BME280;37512;52.408;13.356;2023-01-31T03:22:18;101064.94;;;2.14;100.00
45763;BME280;37512;52.408;13.356;2023-01-31T03:26:24;101073.16;;;2.14;100.00
45763;BME280;37512;52.408;13.356;2023-01-31T03:34:53;101086.34;;;1.93;100.00
45763;BME280;37512;52.408;13.356;2023-01-31T03:39:12;101091.41;;;2.18;100.00
45763;BME280;37512;52.408;13.356;2023-01-31T03:43:27;101114.25;;;1.95;100.00
45763;BME280;37512;52.408;13.356;2023-01-31T03:47:38;101098.88;;;1.99;100.00
45763;BME280;37512;52.408;13.356;2023-01-31T03:51:45;101114.06;;;2.05;100.00
45763;BME280;37512;52.408;13.356;2023-01-31T03:55:53;101111.81;;;1.93;100.00
45763;BME280;37512;52.408;13.356;2023-01-31T03:59:58;101122.53;;;1.90;100.00
45763;BME280;37512;52.408;13.356;2023-01-31T04:04:04;101119.56;;;1.86;100.00
45763;BME280;37512;52.408;13.356;2023-01-31T04:08:08;101119.94;;;1.98;100.00
45763;BME280;37512;52.408;13.356;2023-01-31T04:12:13;101124.16;;;1.91;100.00
45763;BME280;37512;52.408;13.356;2023-01-31T04:16:15;101131.94;;;1.83;100.00
45763;BME280;37512;52.408;13.356;2023-01-31T04:20:17;101135.19;;;1.85;100.00
45763;BME280;37512;52.408;13.356;2023-01-31T04:24:18;101137.25;;;1.94;100.00
45763;BME280;37512;52.408;13.356;2023-01-31T04:28:21;101138.75;;;1.67;100.00
45763;BME280;37512;52.408;13.356;2023-01-31T04:32:22;101137.91;;;1.66;100.00
45763;BME280;37512;52.408;13.356;2023-01-31T04:36:24;101140.50;;;1.77;100.00
45763;BME280;37512;52.408;13.356;2023-01-31T04:40:26;101137.63;;;1.68;100.00
45763;BME280;37512;52.408;13.356;2023-01-31T04:44:27;101148.41;;;1.59;100.00
45763;BME280;37512;52.408;13.356;2023-01-31T04:48:29;101139.91;;;1.80;100.00
45763;BME280;37512;52.408;13.356;2023-01-31T04:52:30;101152.78;;;1.79;100.00
45763;BME280;37512;52.408;13.356;2023-01-31T04:56:32;101163.72;;;1.79;100.00
45763;BME280;37512;52.408;13.356;2023-01-31T05:00:34;101165.13;;;1.96;100.00
45763;BME280;37512;52.408;13.356;2023-01-31T05:04:35;101156.66;;;1.97;100.00
45763;BME280;37512;52.408;13.356;2023-01-31T05:08:37;101166.56;;;1.93;100.00
45763;BME280;37512;52.408;13.356;2023-01-31T05:12:38;101151.16;;;1.97;100.00
45763;BME280;37512;52.408;13.356;2023-01-31T05:16:40;101164.19;;;2.05;100.00
45763;BME280;37512;52.408;13.356;2023-01-31T05:20:44;101172.25;;;2.16;100.00
45763;BME280;37512;52.408;13.356;2023-01-31T05:24:45;101174.91;;;2.21;100.00
45763;BME280;37512;52.408;13.356;2023-01-31T05:28:47;101176.91;;;2.15;100.00
45763;BME280;37512;52.408;13.356;2023-01-31T05:32:49;101170.16;;;2.07;100.00
45763;BME280;37512;52.408;13.356;2023-01-31T05:36:51;101194.00;;;2.07;100.00
45763;BME280;37512;52.408;13.356;2023-01-31T05:40:53;101186.53;;;2.32;100.00
45763;BME280;37512;52.408;13.356;2023-01-31T05:44:54;101186.28;;;2.28;100.00
45763;BME280;37512;52.408;13.356;2023-01-31T05:48:56;101195.72;;;2.22;100.00
45763;BME280;37512;52.408;13.356;2023-01-31T05:52:58;101198.19;;;2.37;100.00
45763;BME280;37512;52.408;13.356;2023-01-31T05:57:01;101191.91;;;2.56;100.00
45763;BME280;37512;52.408;13.356;2023-01-31T06:01:03;101195.69;;;2.41;100.00
45763;BME280;37512;52.408;13.356;2023-01-31T06:05:04;101215.72;;;2.55;100.00
45763;BME280;37512;52.408;13.356;2023-01-31T06:09:06;101201.03;;;2.51;100.00
45763;BME280;37512;52.408;13.356;2023-01-31T06:13:07;101210.94;;;2.47;100.00
45763;BME280;37512;52.408;13.356;2023-01-31T06:17:09;101211.84;;;2.42;100.00
45763;BME280;37512;52.408;13.356;2023-01-31T06:21:10;101207.97;;;2.62;100.00
45763;BME280;37512;52.408;13.356;2023-01-31T06:25:12;101209.81;;;2.67;100.00
45763;BME280;37512;52.408;13.356;2023-01-31T06:29:14;101218.53;;;2.69;100.00
45763;BME280;37512;52.408;13.356;2023-01-31T06:33:15;101232.25;;;2.83;100.00
45763;BME280;37512;52.408;13.356;2023-01-31T06:37:17;101233.09;;;2.83;100.00
45763;BME280;37512;52.408;13.356;2023-01-31T06:41:19;101225.88;;;2.55;100.00
45763;BME280;37512;52.408;13.356;2023-01-31T06:45:20;101230.75;;;2.58;100.00
45763;BME280;37512;52.408;13.356;2023-01-31T06:49:22;101228.75;;;2.63;100.00
45763;BME280;37512;52.408;13.356;2023-01-31T06:53:24;101231.00;;;2.61;100.00
45763;BME280;37512;52.408;13.356;2023-01-31T06:57:25;101226.13;;;2.58;100.00
45763;BME280;37512;52.408;13.356;2023-01-31T07:01:27;101225.75;;;2.65;100.00
45763;BME280;37512;52.408;13.356;2023-01-31T07:05:28;101230.00;;;2.71;100.00
45763;BME280;37512;52.408;13.356;2023-01-31T07:09:33;101238.25;;;2.52;100.00
45763;BME280;37512;52.408;13.356;2023-01-31T07:13:36;101242.69;;;2.48;100.00
45763;BME280;37512;52.408;13.356;2023-01-31T07:17:37;101232.03;;;2.65;100.00
45763;BME280;37512;52.408;13.356;2023-01-31T07:21:39;101220.59;;;2.77;100.00
45763;BME280;37512;52.408;13.356;2023-01-31T07:25:41;101201.78;;;2.70;100.00
45763;BME280;37512;52.408;13.356;2023-01-31T07:29:42;101211.84;;;2.75;100.00
45763;BME280;37512;52.408;13.356;2023-01-31T07:33:44;101227.16;;;2.62;100.00
45763;BME280;37512;52.408;13.356;2023-01-31T07:37:46;101233.63;;;2.66;100.00
45763;BME280;37512;52.408;13.356;2023-01-31T07:41:48;101225.38;;;2.53;100.00
45763;BME280;37512;52.408;13.356;2023-01-31T07:45:50;101214.44;;;2.66;100.00
45763;BME280;37512;52.408;13.356;2023-01-31T07:49:52;101228.91;;;2.53;100.00
45763;BME280;37512;52.408;13.356;2023-01-31T07:53:53;101231.16;;;2.51;100.00
45763;BME280;37512;52.408;13.356;2023-01-31T07:57:56;101228.38;;;2.70;100.00
45763;BME280;37512;52.408;13.356;2023-01-31T08:01:58;101215.44;;;2.57;100.00
45763;BME280;37512;52.408;13.356;2023-01-31T08:06:18;101213.16;;;2.78;100.00
45763;BME280;37512;52.408;13.356;2023-01-31T08:10:19;101227.16;;;2.62;100.00
45763;BME280;37512;52.408;13.356;2023-01-31T08:14:21;101212.78;;;2.84;100.00
45763;BME280;37512;52.408;13.356;2023-01-31T08:18:26;101226.59;;;2.79;100.00
45763;BME280;37512;52.408;13.356;2023-01-31T08:22:28;101213.97;;;2.78;100.00
45763;BME280;37512;52.408;13.356;2023-01-31T08:26:29;101216.00;;;2.72;100.00
45763;BME280;37512;52.408;13.356;2023-01-31T08:30:31;101225.94;;;2.68;100.00
45763;BME280;37512;52.408;13.356;2023-01-31T08:34:33;101211.28;;;2.59;100.00
45763;BME280;37512;52.408;13.356;2023-01-31T08:38:34;101208.72;;;2.82;100.00
45763;BME280;37512;52.408;13.356;2023-01-31T08:42:36;101209.19;;;2.70;100.00
45763;BME280;37512;52.408;13.356;2023-01-31T08:46:37;101198.88;;;2.81;100.00
45763;BME280;37512;52.408;13.356;2023-01-31T08:50:39;101200.91;;;2.89;100.00
45763;BME280;37512;52.408;13.356;2023-01-31T08:54:41;101201.25;;;3.01;100.00
45763;BME280;37512;52.408;13.356;2023-01-31T08:58:43;101187.00;;;2.85;100.00
45763;BME280;37512;52.408;13.356;2023-01-31T09:02:59;101182.03;;;2.87;100.00
45763;BME280;37512;52.408;13.356;2023-01-31T09:07:00;101174.00;;;2.91;100.00
45763;BME280;37512;52.408;13.356;2023-01-31T09:11:02;101182.66;;;2.98;100.00
45763;BME280;37512;52.408;13.356;2023-01-31T09:15:04;101172.94;;;3.20;100.00
45763;BME280;37512;52.408;13.356;2023-01-31T09:19:06;101167.84;;;2.99;100.00
45763;BME280;37512;52.408;13.356;2023-01-31T09:23:07;101161.75;;;3.16;100.00
45763;BME280;37512;52.408;13.356;2023-01-31T09:27:09;101152.09;;;3.19;100.00
45763;BME280;37512;52.408;13.356;2023-01-31T09:31:12;101160.66;;;3.31;100.00
45763;BME280;37512;52.408;13.356;2023-01-31T09:35:15;101160.72;;;3.26;100.00
45763;BME280;37512;52.408;13.356;2023-01-31T09:39:17;101147.00;;;3.40;100.00
45763;BME280;37512;52.408;13.356;2023-01-31T09:43:21;101150.47;;;3.31;100.00
45763;BME280;37512;52.408;13.356;2023-01-31T09:51:34;101125.25;;;3.57;100.00
45763;BME280;37512;52.408;13.356;2023-01-31T09:55:45;101120.16;;;3.50;100.00
45763;BME280;37512;52.408;13.356;2023-01-31T10:00:21;101124.19;;;3.67;100.00
45763;BME280;37512;52.408;13.356;2023-01-31T10:09:33;101098.47;;;3.76;100.00
45763;BME280;37512;52.408;13.356;2023-01-31T10:13:40;101092.00;;;3.95;100.00
45763;BME280;37512;52.408;13.356;2023-01-31T10:17:57;101091.16;;;3.94;100.00
45763;BME280;37512;52.408;13.356;2023-01-31T10:22:06;101094.91;;;3.98;100.00
45763;BME280;37512;52.408;13.356;2023-01-31T10:26:13;101084.88;;;3.94;100.00
45763;BME280;37512;52.408;13.356;2023-01-31T10:30:20;101076.63;;;3.94;100.00
45763;BME280;37512;52.408;13.356;2023-01-31T10:34:27;101075.44;;;3.86;100.00
45763;BME280;37512;52.408;13.356;2023-01-31T10:38:38;101064.66;;;3.53;100.00
45763;BME280;37512;52.408;13.356;2023-01-31T10:42:48;101048.16;;;3.67;100.00
45763;BME280;37512;52.408;13.356;2023-01-31T10:46:57;101061.34;;;3.79;100.00
45763;BME280;37512;52.408;13.356;2023-01-31T10:55:32;101042.19;;;3.88;100.00
45763;BME280;37512;52.408;13.356;2023-01-31T10:59:44;101033.88;;;3.79;100.00
45763;BME280;37512;52.408;13.356;2023-01-31T11:03:51;101016.66;;;3.87;100.00
45763;BME280;37512;52.408;13.356;2023-01-31T11:07:56;101012.03;;;3.96;100.00
45763;BME280;37512;52.408;13.356;2023-01-31T11:12:03;100998.25;;;3.88;100.00
45763;BME280;37512;52.408;13.356;2023-01-31T11:16:08;100991.84;;;4.01;100.00
45763;BME280;37512;52.408;13.356;2023-01-31T11:20:21;100976.59;;;3.86;100.00
45763;BME280;37512;52.408;13.356;2023-01-31T11:24:28;100972.28;;;3.94;100.00
45763;BME280;37512;52.408;13.356;2023-01-31T11:28:39;100964.47;;;3.87;100.00
45763;BME280;37512;52.408;13.356;2023-01-31T11:32:42;100952.09;;;3.98;100.00
45763;BME280;37512;52.408;13.356;2023-01-31T11:36:43;100943.59;;;3.77;100.00
45763;BME280;37512;52.408;13.356;2023-01-31T11:40:48;100954.31;;;3.88;100.00
45763;BME280;37512;52.408;13.356;2023-01-31T11:44:59;100939.16;;;3.90;100.00
45763;BME280;37512;52.408;13.356;2023-01-31T11:49:10;100921.69;;;3.86;100.00
45763;BME280;37512;52.408;13.356;2023-01-31T11:53:23;100907.63;;;3.88;100.00
45763;BME280;37512;52.408;13.356;2023-01-31T11:57:33;100896.97;;;3.86;100.00
45763;BME280;37512;52.408;13.356;2023-01-31T12:01:50;100877.88;;;3.81;100.00
45763;BME280;37512;52.408;13.356;2023-01-31T12:06:00;100871.69;;;3.75;100.00
45763;BME280;37512;52.408;13.356;2023-01-31T12:10:28;100850.13;;;3.91;100.00
45763;BME280;37512;52.408;13.356;2023-01-31T12:14:36;100842.91;;;3.64;100.00
45763;BME280;37512;52.408;13.356;2023-01-31T12:19:04;100835.53;;;3.42;100.00
45763;BME280;37512;52.408;13.356;2023-01-31T12:23:26;100842.28;;;3.36;100.00
45763;BME280;37512;52.408;13.356;2023-01-31T12:36:51;100808.66;;;3.30;100.00
45763;BME280;37512;52.408;13.356;2023-01-31T12:41:16;100811.22;;;3.27;100.00
45763;BME280;37512;52.408;13.356;2023-01-31T12:50:01;100802.56;;;3.11;100.00
45763;BME280;37512;52.408;13.356;2023-01-31T12:58:41;100793.63;;;2.97;100.00
45763;BME280;37512;52.408;13.356;2023-01-31T13:11:52;100783.94;;;2.77;100.00
45763;BME280;37512;52.408;13.356;2023-01-31T13:16:04;100767.28;;;2.73;100.00
45763;BME280;37512;52.408;13.356;2023-01-31T13:24:21;100776.22;;;2.79;100.00
45763;BME280;37512;52.408;13.356;2023-01-31T13:28:27;100780.06;;;2.78;100.00
45763;BME280;37512;52.408;13.356;2023-01-31T13:32:37;100770.66;;;2.70;100.00
45763;BME280;37512;52.408;13.356;2023-01-31T13:36:47;100759.44;;;2.80;100.00
45763;BME280;37512;52.408;13.356;2023-01-31T13:40:52;100754.03;;;2.89;100.00
45763;BME280;37512;52.408;13.356;2023-01-31T13:45:00;100754.72;;;2.95;100.00
45763;BME280;37512;52.408;13.356;2023-01-31T13:49:05;100756.53;;;2.99;100.00
45763;BME280;37512;52.408;13.356;2023-01-31T13:53:15;100745.06;;;2.97;100.00
45763;BME280;37512;52.408;13.356;2023-01-31T13:57:28;100744.47;;;3.09;100.00
45763;BME280;37512;52.408;13.356;2023-01-31T14:01:33;100739.06;;;3.18;100.00
45763;BME280;37512;52.408;13.356;2023-01-31T14:14:17;100751.03;;;3.22;100.00
45763;BME280;37512;52.408;13.356;2023-01-31T14:22:37;100737.97;;;3.27;100.00
45763;BME280;37512;52.408;13.356;2023-01-31T14:30:44;100737.03;;;3.32;100.00
45763;BME280;37512;52.408;13.356;2023-01-31T14:34:49;100724.59;;;3.34;100.00
45763;BME280;37512;52.408;13.356;2023-01-31T15:00:59;100701.44;;;3.49;100.00
45763;BME280;37512;52.408;13.356;2023-01-31T15:13:39;100698.06;;;3.61;100.00
45763;BME280;37512;52.408;13.356;2023-01-31T15:17:43;100692.56;;;3.52;100.00
45763;BME280;37512;52.408;13.356;2023-01-31T15:21:47;100689.53;;;3.63;100.00
45763;BME280;37512;52.408;13.356;2023-01-31T15:25:55;100679.50;;;3.67;100.00
45763;BME280;37512;52.408;13.356;2023-01-31T15:34:04;100668.53;;;3.67;100.00
45763;BME280;37512;52.408;13.356;2023-01-31T15:42:33;100684.06;;;3.80;100.00
45763;BME280;37512;52.408;13.356;2023-01-31T15:46:34;100681.28;;;3.71;100.00
45763;BME280;37512;52.408;13.356;2023-01-31T15:50:36;100691.19;;;3.81;100.00
45763;BME280;37512;52.408;13.356;2023-01-31T15:54:38;100687.00;;;3.92;100.00
45763;BME280;37512;52.408;13.356;2023-01-31T15:58:44;100666.31;;;3.86;100.00
45763;BME280;37512;52.408;13.356;2023-01-31T16:02:47;100662.28;;;3.84;100.00
45763;BME280;37512;52.408;13.356;2023-01-31T16:06:49;100659.19;;;3.85;100.00
45763;BME280;37512;52.408;13.356;2023-01-31T16:10:51;100673.59;;;3.91;100.00
45763;BME280;37512;52.408;13.356;2023-01-31T16:14:53;100669.22;;;3.90;100.00
45763;BME280;37512;52.408;13.356;2023-01-31T16:19:00;100674.41;;;4.00;100.00
45763;BME280;37512;52.408;13.356;2023-01-31T16:23:02;100676.19;;;4.05;100.00
45763;BME280;37512;52.408;13.356;2023-01-31T16:27:15;100669.91;;;4.13;100.00
45763;BME280;37512;52.408;13.356;2023-01-31T16:31:18;100666.31;;;4.04;100.00
45763;BME280;37512;52.408;13.356;2023-01-31T16:35:23;100681.53;;;4.10;100.00
45763;BME280;37512;52.408;13.356;2023-01-31T16:43:42;100670.53;;;4.18;100.00
45763;BME280;37512;52.408;13.356;2023-01-31T16:47:46;100672.13;;;4.19;100.00
45763;BME280;37512;52.408;13.356;2023-01-31T16:51:50;100666.34;;;4.21;100.00
45763;BME280;37512;52.408;13.356;2023-01-31T16:56:16;100667.94;;;4.31;100.00
45763;BME280;37512;52.408;13.356;2023-01-31T17:04:25;100638.69;;;4.26;100.00
45763;BME280;37512;52.408;13.356;2023-01-31T17:08:27;100642.09;;;4.23;100.00
45763;BME280;37512;52.408;13.356;2023-01-31T17:12:31;100622.88;;;4.32;100.00
45763;BME280;37512;52.408;13.356;2023-01-31T17:16:33;100627.22;;;4.33;100.00
45763;BME280;37512;52.408;13.356;2023-01-31T17:20:34;100634.47;;;4.29;100.00
45763;BME280;37512;52.408;13.356;2023-01-31T17:24:36;100628.97;;;4.37;100.00
45763;BME280;37512;52.408;13.356;2023-01-31T17:28:37;100629.81;;;4.29;100.00
45763;BME280;37512;52.408;13.356;2023-01-31T17:32:41;100620.75;;;4.37;100.00
45763;BME280;37512;52.408;13.356;2023-01-31T17:36:43;100612.66;;;4.32;100.00
45763;BME280;37512;52.408;13.356;2023-01-31T17:40:46;100612.66;;;4.32;100.00
45763;BME280;37512;52.408;13.356;2023-01-31T17:44:49;100596.34;;;4.36;100.00
45763;BME280;37512;52.408;13.356;2023-01-31T17:48:50;100594.09;;;4.38;100.00
45763;BME280;37512;52.408;13.356;2023-01-31T17:52:53;100575.66;;;4.38;100.00
45763;BME280;37512;52.408;13.356;2023-01-31T17:56:54;100597.28;;;4.40;100.00
45763;BME280;37512;52.408;13.356;2023-01-31T18:00:56;100560.28;;;4.37;100.00
45763;BME280;37512;52.408;13.356;2023-01-31T18:04:57;100536.69;;;4.36;100.00
45763;BME280;37512;52.408;13.356;2023-01-31T18:09:01;100523.44;;;4.38;100.00
45763;BME280;37512;52.408;13.356;2023-01-31T18:13:03;100540.75;;;4.30;100.00
45763;BME280;37512;52.408;13.356;2023-01-31T18:17:05;100553.31;;;4.40;100.00
45763;BME280;37512;52.408;13.356;2023-01-31T18:21:14;100545.75;;;4.37;100.00
45763;BME280;37512;52.408;13.356;2023-01-31T18:25:16;100532.31;;;4.44;100.00
45763;BME280;37512;52.408;13.356;2023-01-31T18:29:18;100527.09;;;4.51;100.00
45763;BME280;37512;52.408;13.356;2023-01-31T18:33:20;100539.22;;;4.59;100.00
45763;BME280;37512;52.408;13.356;2023-01-31T18:37:24;100534.50;;;4.68;100.00
45763;BME280;37512;52.408;13.356;2023-01-31T18:41:25;100521.72;;;4.72;100.00
45763;BME280;37512;52.408;13.356;2023-01-31T18:45:27;100508.22;;;4.88;100.00
45763;BME280;37512;52.408;13.356;2023-01-31T18:49:28;100514.03;;;4.87;100.00
45763;BME280;37512;52.408;13.356;2023-01-31T18:53:31;100505.31;;;4.85;100.00
45763;BME280;37512;52.408;13.356;2023-01-31T18:57:33;100502.56;;;4.85;100.00
45763;BME280;37512;52.408;13.356;2023-01-31T19:01:34;100504.53;;;5.05;100.00
45763;BME280;37512;52.408;13.356;2023-01-31T19:05:36;100501.47;;;5.07;100.00
45763;BME280;37512;52.408;13.356;2023-01-31T19:09:37;100505.56;;;5.21;100.00
45763;BME280;37512;52.408;13.356;2023-01-31T19:13:40;100501.38;;;5.15;100.00
45763;BME280;37512;52.408;13.356;2023-01-31T19:17:41;100499.78;;;5.14;100.00
45763;BME280;37512;52.408;13.356;2023-01-31T19:21:43;100521.34;;;5.33;100.00
45763;BME280;37512;52.408;13.356;2023-01-31T19:25:45;100494.97;;;5.32;100.00
45763;BME280;37512;52.408;13.356;2023-01-31T19:29:46;100466.41;;;5.24;100.00
45763;BME280;37512;52.408;13.356;2023-01-31T19:33:57;100467.19;;;5.25;100.00
45763;BME280;37512;52.408;13.356;2023-01-31T19:37:58;100475.72;;;5.32;100.00
45763;BME280;37512;52.408;13.356;2023-01-31T19:42:00;100462.53;;;5.38;100.00
45763;BME280;37512;52.408;13.356;2023-01-31T19:46:03;100513.50;;;5.44;100.00
45763;BME280;37512;52.408;13.356;2023-01-31T19:50:05;100535.91;;;4.74;100.00
45763;BME280;37512;52.408;13.356;2023-01-31T19:54:08;100550.13;;;3.16;100.00
45763;BME280;37512;52.408;13.356;2023-01-31T19:58:12;100548.50;;;2.66;100.00
45763;BME280;37512;52.408;13.356;2023-01-31T20:02:14;100567.72;;;2.75;100.00
45763;BME280;37512;52.408;13.356;2023-01-31T20:06:19;100563.72;;;2.81;100.00
45763;BME280;37512;52.408;13.356;2023-01-31T20:10:20;100575.84;;;2.89;100.00
45763;BME280;37512;52.408;13.356;2023-01-31T20:14:23;100572.59;;;3.35;100.00
45763;BME280;37512;52.408;13.356;2023-01-31T20:18:25;100567.78;;;3.76;100.00
45763;BME280;37512;52.408;13.356;2023-01-31T20:22:27;100538.56;;;3.71;100.00
45763;BME280;37512;52.408;13.356;2023-01-31T20:26:29;100550.19;;;3.86;100.00
45763;BME280;37512;52.408;13.356;2023-01-31T20:30:30;100560.34;;;4.03;100.00
45763;BME280;37512;52.408;13.356;2023-01-31T20:34:32;100581.66;;;4.06;100.00
45763;BME280;37512;52.408;13.356;2023-01-31T20:38:37;100581.84;;;3.83;100.00
45763;BME280;37512;52.408;13.356;2023-01-31T20:42:40;100575.38;;;3.79;100.00
45763;BME280;37512;52.408;13.356;2023-01-31T20:46:41;100593.94;;;3.73;100.00
45763;BME280;37512;52.408;13.356;2023-01-31T20:50:43;100595.56;;;3.66;100.00
45763;BME280;37512;52.408;13.356;2023-01-31T20:54:46;100603.78;;;3.57;100.00
45763;BME280;37512;52.408;13.356;2023-01-31T20:58:47;100606.34;;;3.62;100.00
45763;BME280;37512;52.408;13.356;2023-01-31T21:02:49;100613.97;;;3.56;100.00
45763;BME280;37512;52.408;13.356;2023-01-31T21:06:50;100615.44;;;3.63;100.00
45763;BME280;37512;52.408;13.356;2023-01-31T21:10:54;100621.41;;;3.73;100.00
45763;BME280;37512;52.408;13.356;2023-01-31T21:14:56;100613.16;;;3.82;100.00
45763;BME280;37512;52.408;13.356;2023-01-31T21:18:57;100619.63;;;3.86;100.00
45763;BME280;37512;52.408;13.356;2023-01-31T21:22:58;100629.47;;;3.87;100.00
45763;BME280;37512;52.408;13.356;2023-01-31T21:27:00;100641.94;;;3.93;100.00
45763;BME280;37512;52.408;13.356;2023-01-31T21:31:04;100619.78;;;3.98;100.00
45763;BME280;37512;52.408;13.356;2023-01-31T21:35:06;100634.16;;;3.87;100.00
45763;BME280;37512;52.408;13.356;2023-01-31T21:39:10;100632.41;;;4.00;100.00
45763;BME280;37512;52.408;13.356;2023-01-31T21:43:12;100634.34;;;3.90;100.00
45763;BME280;37512;52.408;13.356;2023-01-31T21:47:14;100627.72;;;4.00;100.00
45763;BME280;37512;52.408;13.356;2023-01-31T21:51:18;100612.50;;;3.85;100.00
45763;BME280;37512;52.408;13.356;2023-01-31T21:55:20;100617.03;;;3.90;100.00
45763;BME280;37512;52.408;13.356;2023-01-31T21:59:22;100620.75;;;3.85;100.00
45763;BME280;37512;52.408;13.356;2023-01-31T22:03:24;100674.00;;;3.67;100.00
45763;BME280;37512;52.408;13.356;2023-01-31T22:07:25;100661.72;;;3.55;100.00
45763;BME280;37512;52.408;13.356;2023-01-31T22:11:27;100641.06;;;3.09;100.00
45763;BME280;37512;52.408;13.356;2023-01-31T22:15:33;100643.47;;;3.02;100.00
45763;BME280;37512;52.408;13.356;2023-01-31T22:19:35;100647.97;;;2.98;100.00
45763;BME280;37512;52.408;13.356;2023-01-31T22:23:38;100645.56;;;3.05;100.00
45763;BME280;37512;52.408;13.356;2023-01-31T22:27:40;100642.41;;;3.21;100.00
45763;BME280;37512;52.408;13.356;2023-01-31T22:31:42;100636.59;;;3.13;100.00
45763;BME280;37512;52.408;13.356;2023-01-31T22:35:44;100650.59;;;3.12;100.00
45763;BME280;37512;52.408;13.356;2023-01-31T22:39:45;100646.94;;;3.25;100.00
45763;BME280;37512;52.408;13.356;2023-01-31T22:43:49;100630.94;;;3.19;100.00
45763;BME280;37512;52.408;13.356;2023-01-31T22:47:51;100633.19;;;3.17;100.00
45763;BME280;37512;52.408;13.356;2023-01-31T22:51:52;100636.78;;;3.26;100.00
45763;BME280;37512;52.408;13.356;2023-01-31T22:55:54;100636.69;;;3.48;100.00
45763;BME280;37512;52.408;13.356;2023-01-31T22:59:59;100644.56;;;3.41;100.00
45763;BME280;37512;52.408;13.356;2023-01-31T23:04:03;100644.91;;;3.48;100.00
45763;BME280;37512;52.408;13.356;2023-01-31T23:08:04;100650.25;;;3.45;100.00
45763;BME280;37512;52.408;13.356;2023-01-31T23:12:06;100656.22;;;3.55;100.00
45763;BME280;37512;52.408;13.356;2023-01-31T23:16:09;100637.81;;;3.47;100.00
45763;BME280;37512;52.408;13.356;2023-01-31T23:20:16;100653.94;;;3.40;100.00